createdAt,value
2023-04-20T00:02:23.055Z,93.50
2023-04-20T00:04:51.928Z,93.50
2023-04-20T00:07:21.621Z,93.40
2023-04-20T00:09:49.903Z,93.40
2023-04-20T00:12:18.263Z,93.40
2023-04-20T00:14:47.912Z,93.30
2023-04-20T00:17:24.385Z,93.30
2023-04-20T00:19:53.263Z,93.30
2023-04-20T00:22:21.621Z,93.20
2023-04-20T00:24:49.904Z,93.20
2023-04-20T00:27:18.242Z,93.20
2023-04-20T00:29:47.935Z,93.20
2023-04-20T00:32:16.193Z,93.10
2023-04-20T00:34:44.500Z,93.10
2023-04-20T00:37:13.095Z,93.10
2023-04-20T00:39:41.902Z,93.10
2023-04-20T00:42:10.480Z,93.10
2023-04-20T00:44:38.768Z,93.00
2023-04-20T00:47:08.585Z,93.10
2023-04-20T00:49:37.066Z,93.10
2023-04-20T00:52:05.952Z,93.10
2023-04-20T00:54:34.459Z,93.00
2023-04-20T00:57:02.843Z,93.10
2023-04-20T00:59:31.158Z,93.00
2023-04-20T01:02:00.003Z,93.00
2023-04-20T01:04:30.674Z,93.00
2023-04-20T01:06:59.231Z,93.30
2023-04-20T01:09:27.716Z,93.00
2023-04-20T01:11:56.037Z,92.90
2023-04-20T01:14:24.561Z,93.00
2023-04-20T01:16:52.895Z,92.90
2023-04-20T01:19:21.672Z,92.90
2023-04-20T01:21:51.559Z,92.80
2023-04-20T01:24:21.225Z,92.80
2023-04-20T01:26:49.658Z,92.80
2023-04-20T01:29:18.096Z,92.80
2023-04-20T01:31:46.701Z,92.70
2023-04-20T01:34:15.318Z,92.70
2023-04-20T01:36:43.757Z,92.60
2023-04-20T01:39:12.309Z,92.50
2023-04-20T01:41:42.109Z,92.50
2023-04-20T01:44:10.469Z,92.50
2023-04-20T01:46:39.588Z,92.50
2023-04-20T01:49:08.220Z,92.80
2023-04-20T01:51:37.059Z,92.40
2023-04-20T01:54:05.555Z,92.40
2023-04-20T01:56:34.099Z,92.40
2023-04-20T01:59:03.856Z,92.40
2023-04-20T02:01:32.277Z,92.40
2023-04-20T02:04:00.757Z,92.30
2023-04-20T02:06:29.255Z,92.30
2023-04-20T02:08:57.533Z,92.30
2023-04-20T02:11:26.398Z,92.30
2023-04-20T02:13:54.684Z,92.30
2023-04-20T02:16:24.990Z,92.30
2023-04-20T02:18:54.769Z,92.20
2023-04-20T02:21:23.374Z,92.30
2023-04-20T02:23:52.385Z,92.30
2023-04-20T02:26:20.684Z,92.30
2023-04-20T02:28:48.979Z,92.30
2023-04-20T02:31:17.298Z,92.30
2023-04-20T02:33:47.821Z,92.30
2023-04-20T02:36:16.256Z,92.30
2023-04-20T02:38:44.576Z,92.30
2023-04-20T02:41:12.890Z,92.40
2023-04-20T02:43:41.233Z,92.70
2023-04-20T02:46:09.549Z,92.30
2023-04-20T02:48:37.874Z,92.30
2023-04-20T02:51:07.905Z,92.30
2023-04-20T02:53:36.353Z,92.30
2023-04-20T02:56:04.827Z,92.30
2023-04-20T02:58:33.229Z,92.30
2023-04-20T03:01:01.851Z,92.30
2023-04-20T03:03:30.726Z,92.30
2023-04-20T03:05:59.356Z,92.30
2023-04-20T03:08:29.141Z,92.30
2023-04-20T03:10:57.430Z,92.30
2023-04-20T03:13:25.732Z,92.30
2023-04-20T03:15:54.262Z,92.60
2023-04-20T03:18:22.687Z,92.70
2023-04-20T03:20:51.038Z,92.60
2023-04-20T03:23:19.390Z,92.70
2023-04-20T03:25:49.202Z,92.70
2023-04-20T03:28:17.692Z,92.70
2023-04-20T03:30:46.012Z,92.80
2023-04-20T03:33:14.303Z,92.80
2023-04-20T03:35:43.260Z,92.70
2023-04-20T03:38:11.697Z,92.80
2023-04-20T03:40:40.058Z,92.80
2023-04-20T03:43:11.246Z,92.80
2023-04-20T03:45:39.624Z,92.90
2023-04-20T03:48:07.961Z,92.90
2023-04-20T03:50:36.295Z,92.90
2023-04-20T03:53:04.642Z,92.90
2023-04-20T03:55:32.948Z,92.90
2023-04-20T03:58:01.257Z,93.00
2023-04-20T04:00:31.011Z,93.00
2023-04-20T04:02:59.467Z,93.00
2023-04-20T04:05:28.076Z,93.10
2023-04-20T04:07:56.803Z,93.10
2023-04-20T04:10:25.074Z,93.20
2023-04-20T04:12:53.403Z,93.30
2023-04-20T04:15:21.841Z,93.30
2023-04-20T04:17:51.569Z,93.30
2023-04-20T04:20:19.940Z,93.30
2023-04-20T04:22:48.238Z,93.40
2023-04-20T04:25:17.514Z,93.40
2023-04-20T04:27:46.565Z,93.40
2023-04-20T04:30:15.506Z,93.40
2023-04-20T04:32:44.822Z,93.50
2023-04-20T04:35:15.264Z,93.50
2023-04-20T04:37:43.610Z,93.60
2023-04-20T04:40:12.319Z,93.80
2023-04-20T04:42:40.591Z,93.70
2023-04-20T04:45:10.479Z,93.70
2023-04-20T04:47:41.228Z,93.80
2023-04-20T04:50:10.586Z,93.90
2023-04-20T04:52:40.351Z,94.00
2023-04-20T04:55:10.022Z,94.00
2023-04-20T04:57:38.767Z,94.10
2023-04-20T05:00:09.717Z,94.10
2023-04-20T05:02:38.204Z,94.40
2023-04-20T05:05:09.728Z,94.10
2023-04-20T05:07:40.260Z,94.30
2023-04-20T05:10:09.936Z,94.20
2023-04-20T05:12:38.978Z,94.30
2023-04-20T05:15:08.522Z,94.30
2023-04-20T05:17:36.908Z,94.30
2023-04-20T05:20:06.846Z,94.20
2023-04-20T05:22:35.248Z,94.20
2023-04-20T05:25:05.168Z,94.30
2023-04-20T05:27:34.716Z,94.20
2023-04-20T05:30:16.485Z,94.20
2023-04-20T05:32:51.390Z,94.20
2023-04-20T05:35:20.273Z,94.30
2023-04-20T05:37:48.636Z,94.50
2023-04-20T05:40:18.404Z,94.40
2023-04-20T05:42:46.707Z,94.80
2023-04-20T05:45:15.020Z,94.40
2023-04-20T05:47:43.293Z,94.40
2023-04-20T05:50:12.135Z,94.30
2023-04-20T05:52:40.459Z,94.30
2023-04-20T05:55:09.450Z,94.30
2023-04-20T05:57:43.078Z,94.30
2023-04-20T06:00:13.151Z,94.30
2023-04-20T06:02:41.818Z,94.30
2023-04-20T06:05:11.499Z,94.30
2023-04-20T06:07:40.540Z,94.10
2023-04-20T06:10:09.745Z,94.00
2023-04-20T06:12:39.634Z,94.00
2023-04-20T06:15:10.937Z,93.90
2023-04-20T06:17:41.149Z,93.80
2023-04-20T06:20:10.908Z,93.90
2023-04-20T06:22:44.547Z,93.80
2023-04-20T06:25:13.551Z,93.90
2023-04-20T06:27:43.337Z,94.00
2023-04-20T06:30:12.750Z,94.00
2023-04-20T06:32:41.200Z,94.10
2023-04-20T06:35:10.119Z,94.10
2023-04-20T06:37:39.315Z,94.00
2023-04-20T06:40:09.478Z,94.00
2023-04-20T06:42:38.036Z,93.90
2023-04-20T06:45:09.411Z,94.00
2023-04-20T06:47:39.649Z,93.90
2023-04-20T06:50:10.032Z,93.90
2023-04-20T06:52:38.941Z,93.80
2023-04-20T06:55:07.714Z,93.80
2023-04-20T06:57:37.339Z,93.80
2023-04-20T07:00:09.800Z,93.80
2023-04-20T07:02:45.539Z,93.80
2023-04-20T07:05:13.973Z,93.80
2023-04-20T07:07:42.805Z,93.90
2023-04-20T07:10:20.076Z,93.90
2023-04-20T07:12:48.628Z,94.00
2023-04-20T07:15:18.486Z,93.90
2023-04-20T07:17:47.029Z,94.00
2023-04-20T07:20:21.557Z,94.00
2023-04-20T07:22:49.980Z,94.10
2023-04-20T07:25:18.635Z,94.10
2023-04-20T07:27:49.138Z,94.10
2023-04-20T07:30:18.832Z,94.10
2023-04-20T07:32:47.243Z,94.30
2023-04-20T07:35:15.598Z,94.30
2023-04-20T07:37:43.933Z,94.30
2023-04-20T07:40:12.786Z,94.30
2023-04-20T07:42:41.281Z,94.30
2023-04-20T07:45:11.300Z,94.20
2023-04-20T07:47:44.033Z,94.10
2023-04-20T07:50:12.647Z,94.10
2023-04-20T07:52:41.042Z,94.10
2023-04-20T07:55:12.046Z,93.70
2023-04-20T07:57:40.338Z,93.50
2023-04-20T08:00:10.027Z,93.60
2023-04-20T08:02:38.493Z,93.70
2023-04-20T08:05:10.216Z,93.70
2023-04-20T08:07:38.886Z,93.50
2023-04-20T08:10:08.134Z,93.50
2023-04-20T08:12:36.498Z,93.60
2023-04-20T08:15:06.763Z,93.60
2023-04-20T08:17:35.347Z,93.60
2023-04-20T08:20:05.872Z,93.60
2023-04-20T08:22:36.108Z,93.50
2023-04-20T08:25:04.671Z,93.50
2023-04-20T08:27:33.484Z,93.40
2023-04-20T08:30:04.290Z,93.30
2023-04-20T08:32:33.083Z,92.90
2023-04-20T08:35:01.731Z,92.80
2023-04-20T08:37:32.534Z,92.80
2023-04-20T08:40:02.797Z,92.80
2023-04-20T08:42:32.012Z,92.70
2023-04-20T08:45:00.409Z,92.50
2023-04-20T08:47:30.534Z,92.50
2023-04-20T08:50:01.320Z,92.60
2023-04-20T08:52:29.680Z,92.80
2023-04-20T08:54:58.192Z,92.70
2023-04-20T08:57:28.052Z,92.70
2023-04-20T08:59:57.561Z,92.80
2023-04-20T09:02:29.009Z,92.50
2023-04-20T09:05:05.322Z,92.30
2023-04-20T09:07:34.213Z,92.40
2023-04-20T09:10:02.702Z,92.40
2023-04-20T09:12:42.213Z,92.20
2023-04-20T09:15:11.830Z,92.10
2023-04-20T09:17:41.505Z,92.00
2023-04-20T09:20:11.441Z,91.80
2023-04-20T09:22:40.248Z,91.60
2023-04-20T09:25:15.748Z,91.40
2023-04-20T09:27:55.898Z,91.20
2023-04-20T09:30:24.549Z,91.20
2023-04-20T09:33:03.260Z,90.90
2023-04-20T09:35:32.103Z,91.20
2023-04-20T09:38:00.497Z,91.10
2023-04-20T09:40:29.469Z,91.00
2023-04-20T09:43:04.288Z,90.90
2023-04-20T09:45:33.313Z,90.90
2023-04-20T09:48:02.052Z,90.50
2023-04-20T09:50:41.732Z,89.90
2023-04-20T09:53:17.360Z,90.00
2023-04-20T09:55:47.584Z,89.30
2023-04-20T09:58:23.108Z,89.90
2023-04-20T10:00:51.944Z,90.10
2023-04-20T10:03:21.881Z,90.20
2023-04-20T10:05:52.344Z,90.30
2023-04-20T10:08:21.829Z,90.30
2023-04-20T10:10:51.445Z,90.40
2023-04-20T10:13:23.308Z,90.40
2023-04-20T10:15:51.716Z,90.30
2023-04-20T10:18:23.532Z,89.40
2023-04-20T10:20:53.086Z,89.10
2023-04-20T10:23:21.370Z,89.30
2023-04-20T10:26:01.167Z,89.10
2023-04-20T10:28:41.653Z,89.00
2023-04-20T10:31:25.445Z,89.30
2023-04-20T10:33:55.760Z,89.00
2023-04-20T10:36:29.503Z,89.10
2023-04-20T10:38:58.041Z,89.30
2023-04-20T10:41:26.559Z,89.30
2023-04-20T10:43:56.570Z,88.80
2023-04-20T10:46:26.570Z,87.40
2023-04-20T10:48:56.154Z,87.60
2023-04-20T10:51:25.047Z,87.90
2023-04-20T10:54:05.139Z,87.90
2023-04-20T10:56:43.409Z,88.10
2023-04-20T10:59:15.042Z,88.00
2023-04-20T11:01:44.013Z,88.10
2023-04-20T11:04:14.469Z,87.90
2023-04-20T11:06:46.240Z,88.10
2023-04-20T11:09:26.531Z,88.40
2023-04-20T11:12:02.117Z,88.50
2023-04-20T11:14:32.406Z,89.10
2023-04-20T11:17:01.432Z,89.40
2023-04-20T11:19:32.092Z,88.30
2023-04-20T11:22:01.160Z,88.10
2023-04-20T11:24:31.303Z,87.80
2023-04-20T11:26:59.909Z,88.10
2023-04-20T11:29:34.361Z,87.90
2023-04-20T11:32:05.547Z,86.70
2023-04-20T11:34:35.436Z,85.40
2023-04-20T11:37:05.933Z,83.80
2023-04-20T11:39:34.457Z,84.50
2023-04-20T11:42:03.018Z,83.00
2023-04-20T11:44:33.100Z,83.90
2023-04-20T11:47:02.036Z,83.60
2023-04-20T11:49:31.031Z,83.40
2023-04-20T11:51:59.301Z,83.30
2023-04-20T11:54:29.937Z,82.90
2023-04-20T11:56:59.117Z,83.00
2023-04-20T11:59:27.661Z,83.40
2023-04-20T12:01:57.485Z,83.60
2023-04-20T12:04:26.134Z,83.40
2023-04-20T12:06:54.801Z,82.50
2023-04-20T12:09:23.222Z,82.40
2023-04-20T12:11:51.588Z,82.30
2023-04-20T12:14:19.972Z,82.20
2023-04-20T12:16:48.423Z,82.50
2023-04-20T12:19:19.464Z,80.70
2023-04-20T12:21:48.559Z,80.70
2023-04-20T12:24:16.890Z,80.10
2023-04-20T12:26:45.432Z,78.50
2023-04-20T12:29:13.791Z,79.10
2023-04-20T12:31:42.134Z,78.00
2023-04-20T12:34:10.802Z,77.60
2023-04-20T12:36:40.539Z,77.30
2023-04-20T12:39:08.850Z,77.10
2023-04-20T12:41:37.217Z,75.30
2023-04-20T12:44:15.696Z,75.70
2023-04-20T12:46:44.184Z,76.60
2023-04-20T12:49:12.505Z,76.50
2023-04-20T12:51:42.238Z,72.50
2023-04-20T12:54:11.982Z,74.50
2023-04-20T12:56:40.269Z,74.60
2023-04-20T12:59:08.990Z,73.40
2023-04-20T13:01:37.282Z,74.00
2023-04-20T13:04:05.640Z,74.20
2023-04-20T13:06:34.230Z,74.40
2023-04-20T13:09:04.356Z,74.70
2023-04-20T13:11:32.624Z,74.20
2023-04-20T13:14:00.930Z,74.10
2023-04-20T13:16:29.425Z,74.10
2023-04-20T13:18:57.958Z,74.20
2023-04-20T13:21:26.303Z,74.20
2023-04-20T13:23:56.209Z,73.70
2023-04-20T13:26:26.792Z,70.50
2023-04-20T13:28:57.605Z,70.70
2023-04-20T13:31:26.068Z,69.00
2023-04-20T13:33:54.842Z,69.80
2023-04-20T13:36:23.513Z,70.00
2023-04-20T13:38:53.608Z,70.00
2023-04-20T13:41:22.220Z,70.50
2023-04-20T13:43:51.994Z,70.00
2023-04-20T13:46:21.206Z,70.10
2023-04-20T13:48:49.511Z,70.10
2023-04-20T13:51:17.847Z,69.80
2023-04-20T13:53:48.120Z,70.20
2023-04-20T13:56:16.960Z,69.70
2023-04-20T13:58:53.177Z,69.40
2023-04-20T14:01:23.134Z,69.50
2023-04-20T14:03:52.423Z,69.70
2023-04-20T14:06:21.658Z,69.80
2023-04-20T14:08:50.265Z,69.80
2023-04-20T14:11:18.593Z,70.40
2023-04-20T14:13:47.056Z,70.80
2023-04-20T14:16:15.601Z,71.20
2023-04-20T14:18:46.153Z,71.10
2023-04-20T14:21:14.653Z,71.20
2023-04-20T14:23:42.884Z,71.40
2023-04-20T14:26:11.256Z,71.60
2023-04-20T14:28:39.690Z,71.60
2023-04-20T14:31:07.969Z,71.40
2023-04-20T14:33:36.324Z,70.60
2023-04-20T14:36:06.599Z,71.70
2023-04-20T14:38:34.835Z,70.80
2023-04-20T14:41:03.235Z,70.80
2023-04-20T14:43:32.466Z,70.00
2023-04-20T14:46:01.022Z,68.80
2023-04-20T14:48:29.344Z,66.80
2023-04-20T14:50:57.683Z,66.40
2023-04-20T14:53:27.594Z,66.10
2023-04-20T14:55:56.691Z,67.20
2023-04-20T14:58:25.102Z,67.60
2023-04-20T15:00:54.319Z,68.00
2023-04-20T15:03:23.024Z,68.40
2023-04-20T15:05:51.772Z,68.80
2023-04-20T15:08:20.160Z,68.80
2023-04-20T15:10:52.038Z,68.80
2023-04-20T15:13:20.510Z,68.70
2023-04-20T15:15:50.410Z,68.90
2023-04-20T15:18:20.630Z,69.10
2023-04-20T15:20:49.029Z,70.40
2023-04-20T15:23:17.300Z,69.80
2023-04-20T15:25:45.834Z,70.00
2023-04-20T15:28:15.612Z,70.10
2023-04-20T15:30:44.359Z,70.60
2023-04-20T15:33:12.743Z,70.50
2023-04-20T15:35:46.435Z,71.70
2023-04-20T15:38:14.763Z,72.60
2023-04-20T15:40:43.064Z,73.00
2023-04-20T15:43:11.375Z,73.10
2023-04-20T15:45:43.385Z,73.60
2023-04-20T15:48:13.103Z,74.00
2023-04-20T15:50:41.515Z,74.20
2023-04-20T15:53:09.813Z,74.70
2023-04-20T15:55:39.773Z,74.60
2023-04-20T15:58:08.084Z,74.80
2023-04-20T16:00:36.483Z,75.20
2023-04-20T16:03:06.733Z,75.20
2023-04-20T16:05:35.511Z,75.60
2023-04-20T16:08:03.795Z,75.80
2023-04-20T16:10:32.423Z,75.80
2023-04-20T16:13:00.872Z,76.30
2023-04-20T16:15:29.153Z,77.30
2023-04-20T16:17:58.741Z,78.20
2023-04-20T16:20:28.556Z,77.40
2023-04-20T16:22:56.946Z,78.80
2023-04-20T16:25:28.466Z,79.10
2023-04-20T16:27:59.534Z,78.80
2023-04-20T16:30:30.956Z,79.20
2023-04-20T16:32:59.992Z,78.90
2023-04-20T16:35:30.068Z,79.80
2023-04-20T16:37:58.407Z,80.20
2023-04-20T16:40:26.955Z,80.20
2023-04-20T16:42:55.442Z,80.80
2023-04-20T16:45:23.716Z,80.70
2023-04-20T16:47:52.159Z,81.20
2023-04-20T16:50:20.810Z,82.20
2023-04-20T16:52:50.925Z,82.20
2023-04-20T16:55:19.519Z,82.90
2023-04-20T16:57:47.865Z,82.50
2023-04-20T17:00:17.303Z,82.40
2023-04-20T17:02:45.750Z,82.80
2023-04-20T17:05:14.635Z,82.80
2023-04-20T17:07:42.972Z,83.70
2023-04-20T17:10:13.260Z,85.00
2023-04-20T17:12:42.082Z,84.50
2023-04-20T17:15:11.820Z,84.30
2023-04-20T17:17:40.925Z,84.60
2023-04-20T17:20:10.491Z,84.80
2023-04-20T17:22:38.841Z,85.10
2023-04-20T17:25:08.165Z,85.40
2023-04-20T17:27:37.820Z,85.50
2023-04-20T17:30:07.310Z,85.40
2023-04-20T17:32:35.748Z,85.30
2023-04-20T17:35:04.461Z,85.70
2023-04-20T17:37:32.789Z,86.20
2023-04-20T17:40:01.532Z,86.30
2023-04-20T17:42:29.899Z,86.50
2023-04-20T17:44:59.603Z,86.60
2023-04-20T17:47:28.632Z,87.40
2023-04-20T17:49:57.171Z,87.30
2023-04-20T17:52:25.697Z,88.30
2023-04-20T17:54:54.829Z,89.40
2023-04-20T17:57:25.638Z,89.30
2023-04-20T17:59:53.961Z,89.00
2023-04-20T18:02:24.668Z,88.90
2023-04-20T18:04:55.382Z,88.90
2023-04-20T18:07:23.787Z,88.90
2023-04-20T18:09:52.106Z,89.30
2023-04-20T18:12:20.701Z,89.50
2023-04-20T18:14:50.222Z,89.60
2023-04-20T18:17:18.838Z,90.20
2023-04-20T18:19:48.682Z,90.60
2023-04-20T18:22:17.079Z,90.70
2023-04-20T18:24:45.560Z,90.80
2023-04-20T18:27:13.862Z,90.80
2023-04-20T18:29:42.162Z,90.90
2023-04-20T18:32:10.507Z,91.10
2023-04-20T18:34:41.707Z,91.10
2023-04-20T18:37:12.531Z,91.20
2023-04-20T18:39:41.684Z,91.60
2023-04-20T18:42:10.008Z,91.70
2023-04-20T18:44:38.445Z,91.80
2023-04-20T18:47:07.003Z,91.80
2023-04-20T18:49:35.461Z,91.90
2023-04-20T18:52:04.004Z,92.10
2023-04-20T18:54:35.690Z,92.30
2023-04-20T18:57:07.518Z,92.30
2023-04-20T18:59:35.921Z,92.30
2023-04-20T19:02:04.585Z,92.40
2023-04-20T19:04:36.341Z,92.40
2023-04-20T19:07:04.778Z,92.50
2023-04-20T19:09:34.659Z,92.50
2023-04-20T19:12:03.593Z,92.50
2023-04-20T19:14:32.091Z,92.50
2023-04-20T19:17:08.245Z,92.40
2023-04-20T19:19:36.696Z,92.40
2023-04-20T19:22:05.546Z,92.40
2023-04-20T19:24:35.334Z,92.40
2023-04-20T19:27:03.676Z,92.70
2023-04-20T19:29:32.927Z,92.80
2023-04-20T19:32:03.782Z,92.80
2023-04-20T19:34:32.144Z,92.90
2023-04-20T19:37:00.573Z,92.80
2023-04-20T19:39:29.351Z,92.90
2023-04-20T19:41:59.215Z,93.40
2023-04-20T19:44:28.240Z,93.00
2023-04-20T19:46:56.577Z,92.90
2023-04-20T19:49:24.913Z,93.20
2023-04-20T19:51:53.261Z,93.30
2023-04-20T19:54:21.657Z,93.40
2023-04-20T19:56:50.134Z,93.50
2023-04-20T19:59:20.373Z,93.50
2023-04-20T20:01:50.659Z,93.70
2023-04-20T20:04:20.561Z,93.70
2023-04-20T20:06:50.765Z,93.70
2023-04-20T20:09:23.728Z,93.70
2023-04-20T20:11:52.636Z,93.70
2023-04-20T20:14:22.948Z,93.70
2023-04-20T20:16:51.259Z,93.80
2023-04-20T20:19:22.162Z,93.80
2023-04-20T20:21:51.147Z,93.80
2023-04-20T20:24:20.833Z,93.90
2023-04-20T20:26:49.116Z,93.80
2023-04-20T20:29:17.689Z,93.80
2023-04-20T20:31:47.741Z,93.90
2023-04-20T20:34:16.516Z,94.00
2023-04-20T20:36:45.145Z,93.90
2023-04-20T20:39:14.096Z,93.80
2023-04-20T20:41:42.746Z,93.80
2023-04-20T20:44:11.496Z,93.70
2023-04-20T20:46:41.078Z,93.80
2023-04-20T20:49:10.896Z,93.70
2023-04-20T20:51:39.180Z,93.70
2023-04-20T20:54:07.589Z,93.70
2023-04-20T20:56:35.962Z,93.60
2023-04-20T20:59:04.337Z,93.60
2023-04-20T21:01:32.594Z,93.60
2023-04-20T21:04:01.260Z,93.60
2023-04-20T21:06:31.201Z,93.70
2023-04-20T21:08:59.497Z,93.60
2023-04-20T21:11:27.851Z,93.60
2023-04-20T21:14:01.723Z,93.60
2023-04-20T21:16:30.464Z,93.60
2023-04-20T21:18:58.857Z,93.60
2023-04-20T21:21:27.548Z,93.70
2023-04-20T21:23:57.403Z,93.80
2023-04-20T21:26:25.786Z,93.80
2023-04-20T21:28:54.054Z,93.90
2023-04-20T21:31:22.333Z,93.90
2023-04-20T21:33:50.693Z,93.90
2023-04-20T21:36:18.997Z,93.90
2023-04-20T21:38:47.360Z,93.90
2023-04-20T21:41:17.144Z,93.90
2023-04-20T21:43:45.682Z,93.90
2023-04-20T21:46:15.919Z,93.90
2023-04-20T21:48:44.308Z,93.90
2023-04-20T21:51:16.420Z,94.00
2023-04-20T21:53:45.031Z,94.00
2023-04-20T21:56:14.922Z,94.20
2023-04-20T21:58:53.960Z,94.10
2023-04-20T22:01:22.347Z,94.10
2023-04-20T22:03:51.960Z,94.00
2023-04-20T22:06:20.349Z,94.10
2023-04-20T22:08:48.657Z,94.00
2023-04-20T22:11:17.014Z,93.90
2023-04-20T22:13:46.714Z,94.00
2023-04-20T22:16:15.033Z,93.90
2023-04-20T22:18:43.515Z,93.90
2023-04-20T22:21:11.817Z,93.80
2023-04-20T22:23:40.218Z,93.80
2023-04-20T22:26:09.292Z,93.70
2023-04-20T22:28:37.683Z,93.60
2023-04-20T22:31:07.564Z,93.60
2023-04-20T22:33:36.008Z,93.50
2023-04-20T22:36:04.505Z,93.50
2023-04-20T22:38:35.729Z,93.50
2023-04-20T22:41:04.180Z,93.60
2023-04-20T22:43:32.521Z,93.70
2023-04-20T22:46:00.884Z,93.80
2023-04-20T22:48:30.553Z,93.90
2023-04-20T22:51:00.809Z,93.90
2023-04-20T22:53:30.165Z,94.00
2023-04-20T22:56:05.287Z,94.00
2023-04-20T22:58:33.862Z,94.20
2023-04-20T23:01:02.368Z,94.30
2023-04-20T23:03:33.450Z,94.30
2023-04-20T23:06:01.905Z,94.50
2023-04-20T23:08:30.167Z,94.40
2023-04-20T23:10:58.982Z,94.50
2023-04-20T23:13:27.336Z,94.60
2023-04-20T23:15:55.841Z,94.60
2023-04-20T23:18:24.151Z,94.70
2023-04-20T23:20:53.807Z,94.70
2023-04-20T23:23:22.097Z,94.60
2023-04-20T23:25:50.344Z,94.60
2023-04-20T23:28:18.678Z,94.50
2023-04-20T23:30:46.941Z,94.50
2023-04-20T23:33:15.952Z,94.40
2023-04-20T23:35:44.231Z,94.40
2023-04-20T23:38:14.007Z,94.60
2023-04-20T23:40:42.266Z,94.70
2023-04-20T23:43:10.597Z,94.60
2023-04-20T23:45:39.298Z,94.60
2023-04-20T23:48:08.358Z,94.50
2023-04-20T23:50:38.016Z,94.50
2023-04-20T23:53:07.574Z,94.40
2023-04-20T23:55:37.318Z,94.40
2023-04-20T23:58:05.625Z,94.50
